createdAt,value
2022-10-29T00:00:27.320Z,30.75
2022-10-29T00:02:55.020Z,31.23
2022-10-29T00:05:23.944Z,34.72
2022-10-29T00:07:51.505Z,28.40
2022-10-29T00:10:19.085Z,28.10
2022-10-29T00:12:46.766Z,27.05
2022-10-29T00:15:14.521Z,25.42
2022-10-29T00:17:42.091Z,25.95
2022-10-29T00:20:10.653Z,28.80
2022-10-29T00:22:39.555Z,25.42
2022-10-29T00:25:07.802Z,26.30
2022-10-29T00:27:35.338Z,29.88
2022-10-29T00:30:02.853Z,27.38
2022-10-29T00:32:30.392Z,26.42
2022-10-29T00:34:57.915Z,32.65
2022-10-29T00:37:25.508Z,32.85
2022-10-29T00:39:54.383Z,30.65
2022-10-29T00:42:22.117Z,29.92
2022-10-29T00:44:51.212Z,31.73
2022-10-29T00:47:22.980Z,24.98
2022-10-29T00:49:54.109Z,23.48
2022-10-29T00:52:25.348Z,28.65
2022-10-29T00:54:55.653Z,25.08
2022-10-29T00:57:26.189Z,23.73
2022-10-29T00:59:54.116Z,28.75
2022-10-29T01:02:23.889Z,25.77
2022-10-29T01:04:53.835Z,27.67
2022-10-29T01:07:22.191Z,23.77
2022-10-29T01:09:50.519Z,27.02
2022-10-29T01:12:35.130Z,26.63
2022-10-29T01:15:13.999Z,29.65
2022-10-29T01:17:53.715Z,27.65
2022-10-29T01:20:54.117Z,28.23
2022-10-29T01:24:01.559Z,25.55
2022-10-29T01:27:01.118Z,27.10
2022-10-29T01:29:44.452Z,29.92
2022-10-29T01:32:15.583Z,29.30
2022-10-29T01:34:52.368Z,29.05
2022-10-29T01:37:28.759Z,24.33
2022-10-29T01:39:59.842Z,24.55
2022-10-29T01:42:33.306Z,31.13
2022-10-29T01:45:08.243Z,34.42
2022-10-29T01:47:42.697Z,28.20
2022-10-29T01:50:14.154Z,25.05
2022-10-29T01:52:43.081Z,25.40
2022-10-29T01:55:10.595Z,35.22
2022-10-29T01:57:39.922Z,37.03
2022-10-29T02:00:10.918Z,32.95
2022-10-29T02:02:53.734Z,25.20
2022-10-29T02:05:31.726Z,36.63
2022-10-29T02:08:06.307Z,26.08
2022-10-29T02:10:38.992Z,38.15
2022-10-29T02:13:07.900Z,32.38
2022-10-29T02:15:39.723Z,32.50
2022-10-29T02:18:09.409Z,39.50
2022-10-29T02:20:42.604Z,32.50
2022-10-29T02:23:10.218Z,32.10
2022-10-29T02:25:37.817Z,38.30
2022-10-29T02:28:06.112Z,38.25
2022-10-29T02:30:33.686Z,44.75
2022-10-29T02:33:01.289Z,31.00
2022-10-29T02:35:30.162Z,40.30
2022-10-29T02:37:57.691Z,39.13
2022-10-29T02:40:25.188Z,37.03
2022-10-29T02:42:52.902Z,36.65
2022-10-29T02:45:20.566Z,34.75
2022-10-29T02:47:48.147Z,27.35
2022-10-29T02:50:15.854Z,29.23
2022-10-29T02:52:44.719Z,30.08
2022-10-29T02:55:12.241Z,34.58
2022-10-29T02:57:39.785Z,35.33
2022-10-29T03:00:08.381Z,47.15
2022-10-29T03:02:36.001Z,50.30
2022-10-29T03:05:03.759Z,41.72
2022-10-29T03:07:31.337Z,35.92
2022-10-29T03:10:00.201Z,42.53
2022-10-29T03:12:27.713Z,39.08
2022-10-29T03:14:55.233Z,37.95
2022-10-29T03:17:22.869Z,33.15
2022-10-29T03:19:50.407Z,49.08
2022-10-29T03:22:18.200Z,29.88
2022-10-29T03:24:45.723Z,35.38
2022-10-29T03:27:14.591Z,40.67
2022-10-29T03:29:42.089Z,37.65
2022-10-29T03:32:09.603Z,26.60
2022-10-29T03:34:37.116Z,35.97
2022-10-29T03:37:04.875Z,32.28
2022-10-29T03:39:32.406Z,37.85
2022-10-29T03:41:59.927Z,45.38
2022-10-29T03:44:28.778Z,37.83
2022-10-29T03:46:56.309Z,38.15
2022-10-29T03:49:23.826Z,31.60
2022-10-29T03:51:51.322Z,32.72
2022-10-29T03:54:18.843Z,30.23
2022-10-29T03:56:46.383Z,33.00
2022-10-29T03:59:13.887Z,42.15
2022-10-29T04:01:42.912Z,42.72
2022-10-29T04:04:10.727Z,54.28
2022-10-29T04:06:38.263Z,28.10
2022-10-29T04:09:05.792Z,42.75
2022-10-29T04:11:33.316Z,46.45
2022-10-29T04:14:00.823Z,46.45
2022-10-29T04:16:28.313Z,36.53
2022-10-29T04:18:57.165Z,36.45
2022-10-29T04:23:25.428Z,27.98
2022-10-29T04:29:47.194Z,43.55
2022-10-29T04:32:14.718Z,29.25
2022-10-29T04:34:43.571Z,43.65
2022-10-29T04:37:11.099Z,35.92
2022-10-29T04:39:38.608Z,33.85
2022-10-29T04:42:06.231Z,40.60
2022-10-29T04:44:33.769Z,35.55
2022-10-29T04:47:01.282Z,36.05
2022-10-29T04:49:28.857Z,27.27
2022-10-29T04:51:57.807Z,34.97
2022-10-29T04:54:25.324Z,45.28
2022-10-29T04:56:52.827Z,31.17
2022-10-29T04:59:20.342Z,27.98
2022-10-29T05:01:47.882Z,29.70
2022-10-29T05:04:15.416Z,26.48
2022-10-29T05:06:42.976Z,33.83
2022-10-29T05:09:11.844Z,27.80
2022-10-29T05:11:39.377Z,26.73
2022-10-29T05:14:06.943Z,34.60
2022-10-29T05:16:34.453Z,26.08
2022-10-29T05:19:02.747Z,38.35
2022-10-29T05:21:30.507Z,23.80
2022-10-29T05:23:58.325Z,25.08
2022-10-29T05:26:27.186Z,29.42
2022-10-29T05:28:54.681Z,33.15
2022-10-29T05:31:22.232Z,32.72
2022-10-29T05:33:51.247Z,35.97
2022-10-29T05:36:21.449Z,30.15
2022-10-29T05:38:48.949Z,31.27
2022-10-29T05:41:16.492Z,27.83
2022-10-29T05:43:48.802Z,36.33
2022-10-29T05:46:16.664Z,37.30
2022-10-29T05:48:44.244Z,28.48
2022-10-29T05:51:11.788Z,38.72
2022-10-29T05:53:39.334Z,47.88
2022-10-29T05:56:07.941Z,58.75
2022-10-29T05:58:35.580Z,44.03
2022-10-29T06:01:06.810Z,35.10
2022-10-29T06:03:34.359Z,36.95
2022-10-29T06:06:02.022Z,30.58
2022-10-29T06:08:29.575Z,46.42
2022-10-29T06:10:57.078Z,47.78
2022-10-29T06:13:24.571Z,39.13
2022-10-29T06:15:56.914Z,24.95
2022-10-29T06:18:26.000Z,24.05
2022-10-29T06:20:53.578Z,25.95
2022-10-29T06:23:21.174Z,33.22
2022-10-29T06:25:48.674Z,27.20
2022-10-29T06:28:16.360Z,26.65
2022-10-29T06:30:48.025Z,26.73
2022-10-29T06:33:15.971Z,31.13
2022-10-29T06:35:45.080Z,38.72
2022-10-29T06:38:12.808Z,27.65
2022-10-29T06:40:40.921Z,29.95
2022-10-29T06:43:11.157Z,49.70
2022-10-29T06:45:38.711Z,57.83
2022-10-29T06:48:06.999Z,46.20
2022-10-29T06:50:34.601Z,50.97
2022-10-29T06:53:05.395Z,58.03
2022-10-29T06:55:34.149Z,43.92
2022-10-29T06:58:03.251Z,47.72
2022-10-29T07:00:31.199Z,38.58
2022-10-29T07:03:00.020Z,37.08
2022-10-29T07:05:28.184Z,36.92
2022-10-29T07:07:56.866Z,37.80
2022-10-29T07:10:27.544Z,46.85
2022-10-29T07:12:55.179Z,47.05
2022-10-29T07:15:25.781Z,47.30
2022-10-29T07:17:59.086Z,46.33
2022-10-29T07:20:27.379Z,33.75
2022-10-29T07:22:54.958Z,35.95
2022-10-29T07:25:22.529Z,35.88
2022-10-29T07:27:51.512Z,37.03
2022-10-29T07:30:19.477Z,40.80
2022-10-29T07:32:47.110Z,40.58
2022-10-29T07:35:14.867Z,39.30
2022-10-29T07:37:42.414Z,39.15
2022-10-29T07:40:11.632Z,38.88
2022-10-29T07:42:39.139Z,37.25
2022-10-29T07:45:09.130Z,35.38
2022-10-29T07:47:36.754Z,35.45
2022-10-29T07:50:05.026Z,34.78
2022-10-29T07:52:32.558Z,36.65
2022-10-29T07:55:01.397Z,35.47
2022-10-29T07:57:28.977Z,40.00
2022-10-29T07:59:56.494Z,39.53
2022-10-29T08:02:25.447Z,37.08
2022-10-29T08:04:52.972Z,40.17
2022-10-29T08:07:20.491Z,42.20
2022-10-29T08:09:47.992Z,45.85
2022-10-29T08:12:15.510Z,44.25
2022-10-29T08:14:43.141Z,43.20
2022-10-29T08:17:10.639Z,38.10
2022-10-29T08:19:39.515Z,30.88
2022-10-29T08:22:07.032Z,29.83
2022-10-29T08:24:34.560Z,26.25
2022-10-29T08:27:02.071Z,33.20
2022-10-29T08:29:29.568Z,36.67
2022-10-29T08:31:57.072Z,39.95
2022-10-29T08:34:24.567Z,37.38
2022-10-29T08:36:53.399Z,35.20
2022-10-29T08:39:20.882Z,27.08
2022-10-29T08:42:01.295Z,32.17
2022-10-29T08:44:50.552Z,30.88
2022-10-29T08:47:20.763Z,33.15
2022-10-29T08:49:59.002Z,27.73
2022-10-29T08:52:29.184Z,28.25
2022-10-29T08:55:07.590Z,23.73
2022-10-29T08:57:42.750Z,34.20
2022-10-29T09:00:16.374Z,46.05
2022-10-29T09:02:43.924Z,38.40
2022-10-29T09:05:15.112Z,45.08
2022-10-29T09:08:02.887Z,54.78
2022-10-29T09:10:39.494Z,34.97
2022-10-29T09:13:22.951Z,30.70
2022-10-29T09:16:06.111Z,21.92
2022-10-29T09:18:45.670Z,23.80
2022-10-29T09:21:26.945Z,21.77
2022-10-29T09:24:02.942Z,30.52
2022-10-29T09:26:32.855Z,21.48
2022-10-29T09:29:19.814Z,25.40
2022-10-29T09:31:49.946Z,29.98
2022-10-29T09:34:20.378Z,17.70
2022-10-29T09:36:49.433Z,20.23
2022-10-29T09:39:30.269Z,20.92
2022-10-29T09:42:03.139Z,20.52
2022-10-29T09:44:38.397Z,17.48
2022-10-29T09:47:16.942Z,16.70
2022-10-29T09:50:05.388Z,36.63
2022-10-29T09:52:38.031Z,20.65
2022-10-29T09:55:11.622Z,18.65
2022-10-29T09:57:41.690Z,18.52
2022-10-29T10:00:19.965Z,11.68
2022-10-29T10:02:55.853Z,12.90
2022-10-29T10:05:27.105Z,19.52
2022-10-29T10:08:12.015Z,10.68
2022-10-29T10:10:52.695Z,13.20
2022-10-29T10:13:26.115Z,9.73
2022-10-29T10:15:56.878Z,11.93
2022-10-29T10:18:26.111Z,11.60
2022-10-29T10:21:06.915Z,9.88
2022-10-29T10:23:46.318Z,12.88
2022-10-29T10:26:33.528Z,9.05
2022-10-29T10:29:06.577Z,8.75
2022-10-29T10:31:34.096Z,12.45
2022-10-29T10:34:10.587Z,10.80
2022-10-29T10:36:41.878Z,12.32
2022-10-29T10:39:21.142Z,8.43
2022-10-29T10:41:51.069Z,8.63
2022-10-29T10:44:20.774Z,9.48
2022-10-29T10:46:50.647Z,9.55
2022-10-29T10:49:19.702Z,13.10
2022-10-29T10:51:51.588Z,13.80
2022-10-29T10:54:29.306Z,8.90
2022-10-29T10:57:00.375Z,9.75
2022-10-29T10:59:40.599Z,8.75
2022-10-29T11:02:21.556Z,11.38
2022-10-29T11:04:55.848Z,9.13
2022-10-29T11:07:25.441Z,14.02
2022-10-29T11:09:56.268Z,12.50
2022-10-29T11:12:32.224Z,10.93
2022-10-29T11:15:05.267Z,11.70
2022-10-29T11:17:40.336Z,13.23
2022-10-29T11:20:15.098Z,12.63
2022-10-29T11:22:54.069Z,10.65
2022-10-29T11:25:29.608Z,10.88
2022-10-29T11:28:04.507Z,17.77
2022-10-29T11:30:39.803Z,17.70
2022-10-29T11:33:16.847Z,12.32
2022-10-29T11:35:47.402Z,14.50
2022-10-29T11:38:20.967Z,14.68
2022-10-29T11:40:55.226Z,11.75
2022-10-29T11:43:24.351Z,11.93
2022-10-29T11:45:59.700Z,14.93
2022-10-29T11:48:39.696Z,14.98
2022-10-29T11:51:18.759Z,13.70
2022-10-29T11:53:57.534Z,12.73
2022-10-29T11:56:37.435Z,12.63
2022-10-29T11:59:14.854Z,12.15
2022-10-29T12:01:51.321Z,10.10
2022-10-29T12:04:27.180Z,14.30
2022-10-29T12:07:05.564Z,6.47
2022-10-29T12:09:53.712Z,6.82
2022-10-29T12:12:26.463Z,10.90
2022-10-29T12:15:00.630Z,12.63
2022-10-29T12:17:37.174Z,7.85
2022-10-29T12:20:13.753Z,9.73
2022-10-29T12:22:46.640Z,9.25
2022-10-29T12:25:29.865Z,7.07
2022-10-29T12:28:09.367Z,7.65
2022-10-29T12:30:45.139Z,9.38
2022-10-29T12:33:19.537Z,13.23
2022-10-29T12:35:56.827Z,10.32
2022-10-29T12:38:37.275Z,13.10
2022-10-29T12:41:09.078Z,9.00
2022-10-29T12:43:40.247Z,11.23
2022-10-29T12:46:21.596Z,14.20
2022-10-29T12:48:59.273Z,7.30
2022-10-29T12:51:36.027Z,17.90
2022-10-29T12:54:28.309Z,7.45
2022-10-29T12:56:56.566Z,19.52
2022-10-29T12:59:33.664Z,9.10
2022-10-29T13:02:25.913Z,20.02
2022-10-29T13:05:16.588Z,18.42
2022-10-29T13:08:19.396Z,20.70
2022-10-29T13:10:55.991Z,17.58
2022-10-29T13:13:55.979Z,20.63
2022-10-29T13:16:30.161Z,32.95
2022-10-29T13:19:22.793Z,28.20
2022-10-29T13:22:02.382Z,22.27
2022-10-29T13:24:31.271Z,24.88
2022-10-29T13:27:05.744Z,24.15
2022-10-29T13:29:48.598Z,28.38
2022-10-29T13:32:34.911Z,21.45
2022-10-29T13:35:06.472Z,21.05
2022-10-29T13:37:52.394Z,22.13
2022-10-29T13:41:03.029Z,20.77
2022-10-29T13:43:32.826Z,27.05
2022-10-29T13:46:29.786Z,26.85
2022-10-29T13:49:00.344Z,25.55
2022-10-29T13:51:38.003Z,28.65
2022-10-29T13:54:10.039Z,26.98
2022-10-29T13:56:46.530Z,26.63
2022-10-29T13:59:22.786Z,36.85
2022-10-29T14:02:00.244Z,25.45
2022-10-29T14:04:32.501Z,24.95
2022-10-29T14:07:06.358Z,37.08
2022-10-29T14:09:41.634Z,13.95
2022-10-29T14:12:11.227Z,27.60
2022-10-29T14:14:49.903Z,31.88
2022-10-29T14:17:18.886Z,23.63
2022-10-29T14:19:47.972Z,26.17
2022-10-29T14:22:36.581Z,30.70
2022-10-29T14:25:21.016Z,17.98
2022-10-29T14:27:48.597Z,25.67
2022-10-29T14:30:20.695Z,24.42
2022-10-29T14:32:48.185Z,15.32
2022-10-29T14:35:17.185Z,21.20
2022-10-29T14:37:49.121Z,14.32
2022-10-29T14:40:22.382Z,27.92
2022-10-29T14:42:54.883Z,32.75
2022-10-29T14:45:28.220Z,38.58
2022-10-29T14:47:57.967Z,14.73
2022-10-29T14:50:27.575Z,23.50
2022-10-29T14:52:59.001Z,15.73
2022-10-29T14:55:31.702Z,21.42
2022-10-29T14:58:06.295Z,14.93
2022-10-29T15:00:37.107Z,22.52
2022-10-29T15:03:06.673Z,37.67
2022-10-29T15:05:36.433Z,20.20
2022-10-29T15:08:16.154Z,26.48
2022-10-29T15:10:49.893Z,15.50
2022-10-29T15:13:31.275Z,34.80
2022-10-29T15:16:02.651Z,19.38
2022-10-29T15:18:31.487Z,22.85
2022-10-29T15:20:59.944Z,23.20
2022-10-29T15:23:34.012Z,17.17
2022-10-29T15:26:04.474Z,17.60
2022-10-29T15:28:37.718Z,15.23
2022-10-29T15:31:06.013Z,30.58
2022-10-29T15:33:36.149Z,15.32
2022-10-29T15:36:06.201Z,15.10
2022-10-29T15:39:19.777Z,15.77
2022-10-29T15:41:49.789Z,18.63
2022-10-29T15:44:34.030Z,14.52
2022-10-29T15:47:03.901Z,13.38
2022-10-29T15:49:32.887Z,19.23
2022-10-29T15:52:01.303Z,14.65
2022-10-29T15:54:30.514Z,15.38
2022-10-29T15:56:58.060Z,15.05
2022-10-29T15:59:27.259Z,18.33
2022-10-29T16:01:54.833Z,20.08
2022-10-29T16:04:22.415Z,14.00
2022-10-29T16:06:49.985Z,11.52
2022-10-29T16:09:20.513Z,15.13
2022-10-29T16:11:50.599Z,15.10
2022-10-29T16:14:18.102Z,15.82
2022-10-29T16:16:45.703Z,16.45
2022-10-29T16:19:13.217Z,14.10
2022-10-29T16:21:41.283Z,13.88
2022-10-29T16:24:13.910Z,11.18
2022-10-29T16:26:41.451Z,12.25
2022-10-29T16:29:10.363Z,13.68
2022-10-29T16:31:38.098Z,12.57
2022-10-29T16:34:07.584Z,10.57
2022-10-29T16:36:35.090Z,13.93
2022-10-29T16:39:02.575Z,13.13
2022-10-29T16:41:31.364Z,14.68
2022-10-29T16:43:58.862Z,12.95
2022-10-29T16:46:27.730Z,16.92
2022-10-29T16:48:55.222Z,14.85
2022-10-29T16:51:22.724Z,12.07
2022-10-29T16:53:50.226Z,21.20
2022-10-29T16:56:17.735Z,11.93
2022-10-29T16:58:45.213Z,16.55
2022-10-29T17:01:12.987Z,14.75
2022-10-29T17:03:41.950Z,13.25
2022-10-29T17:06:11.147Z,13.05
2022-10-29T17:08:39.252Z,18.88
2022-10-29T17:11:09.828Z,16.45
2022-10-29T17:13:38.275Z,16.77
2022-10-29T17:16:07.613Z,14.00
2022-10-29T17:18:35.110Z,16.00
2022-10-29T17:21:05.210Z,15.23
2022-10-29T17:23:33.744Z,13.52
2022-10-29T17:26:01.558Z,15.20
2022-10-29T17:28:29.435Z,13.70
2022-10-29T17:30:57.015Z,15.57
2022-10-29T17:33:24.524Z,16.92
2022-10-29T17:36:01.818Z,19.33
2022-10-29T17:38:30.676Z,13.52
2022-10-29T17:40:58.219Z,13.60
2022-10-29T17:43:25.841Z,16.05
2022-10-29T17:45:53.377Z,15.85
2022-10-29T17:48:24.039Z,16.33
2022-10-29T17:50:53.943Z,15.98
2022-10-29T17:53:21.899Z,11.05
2022-10-29T17:55:50.888Z,13.70
2022-10-29T17:58:18.695Z,15.73
2022-10-29T18:00:48.193Z,19.35
2022-10-29T18:03:15.755Z,20.00
2022-10-29T18:05:43.310Z,16.60
2022-10-29T18:08:10.848Z,16.50
2022-10-29T18:10:38.366Z,18.23
2022-10-29T18:13:07.443Z,18.55
2022-10-29T18:15:34.945Z,19.20
2022-10-29T18:18:02.461Z,19.45
2022-10-29T18:20:29.971Z,20.13
2022-10-29T18:22:57.837Z,16.55
2022-10-29T18:25:25.646Z,16.02
2022-10-29T18:27:55.572Z,25.02
2022-10-29T18:30:24.725Z,16.00
2022-10-29T18:32:52.288Z,17.52
2022-10-29T18:35:19.840Z,16.02
2022-10-29T18:37:47.675Z,18.27
2022-10-29T18:40:15.284Z,16.80
2022-10-29T18:42:42.793Z,19.15
2022-10-29T18:45:11.672Z,18.83
2022-10-29T18:47:40.522Z,20.50
2022-10-29T18:50:08.942Z,25.00
2022-10-29T18:52:36.458Z,22.35
2022-10-29T18:55:04.226Z,25.15
2022-10-29T18:57:31.961Z,20.10
2022-10-29T18:59:59.514Z,21.27
2022-10-29T19:02:27.351Z,18.77
2022-10-29T19:04:56.250Z,23.35
2022-10-29T19:07:23.892Z,21.58
2022-10-29T19:09:51.439Z,21.55
2022-10-29T19:12:18.947Z,20.52
2022-10-29T19:14:46.947Z,25.17
2022-10-29T19:17:14.512Z,21.75
2022-10-29T19:19:41.999Z,20.80
2022-10-29T19:22:10.894Z,23.10
2022-10-29T19:24:38.437Z,21.33
2022-10-29T19:27:05.970Z,21.35
2022-10-29T19:29:33.484Z,23.65
2022-10-29T19:32:01.004Z,19.65
2022-10-29T19:34:28.567Z,18.80
2022-10-29T19:36:56.142Z,22.85
2022-10-29T19:39:25.007Z,23.02
2022-10-29T19:41:52.521Z,23.15
2022-10-29T19:44:20.067Z,26.02
2022-10-29T19:46:47.618Z,19.90
2022-10-29T19:49:15.151Z,20.35
2022-10-29T19:51:42.735Z,23.10
2022-10-29T19:54:10.409Z,19.23
2022-10-29T19:56:39.274Z,22.05
2022-10-29T19:59:07.100Z,20.25
2022-10-29T20:01:34.777Z,20.50
2022-10-29T20:04:02.419Z,27.33
2022-10-29T20:06:29.977Z,21.48
2022-10-29T20:08:57.526Z,18.60
2022-10-29T20:11:25.048Z,19.85
2022-10-29T20:13:53.920Z,19.70
2022-10-29T20:16:22.441Z,20.23
2022-10-29T20:18:50.905Z,20.10
2022-10-29T20:21:18.499Z,24.13
2022-10-29T20:23:46.051Z,19.38
2022-10-29T20:26:13.875Z,26.60
2022-10-29T20:28:41.543Z,26.48
2022-10-29T20:31:24.452Z,23.70
2022-10-29T20:33:53.135Z,23.23
2022-10-29T20:36:21.105Z,21.08
2022-10-29T20:38:50.125Z,20.77
2022-10-29T20:41:17.683Z,19.05
2022-10-29T20:43:45.413Z,21.15
2022-10-29T20:46:14.297Z,21.70
2022-10-29T20:48:41.823Z,22.88
2022-10-29T20:51:11.462Z,19.38
2022-10-29T20:53:39.230Z,22.08
2022-10-29T20:56:10.301Z,26.67
2022-10-29T20:58:40.802Z,25.65
2022-10-29T21:01:09.288Z,21.83
2022-10-29T21:03:38.678Z,20.00
2022-10-29T21:06:12.500Z,24.27
2022-10-29T21:08:44.804Z,20.70
2022-10-29T21:11:13.856Z,21.27
2022-10-29T21:13:41.410Z,22.08
2022-10-29T21:16:14.702Z,23.13
2022-10-29T21:18:44.869Z,20.35
2022-10-29T21:21:12.673Z,26.98
2022-10-29T21:23:40.924Z,24.40
2022-10-29T21:26:12.248Z,30.25
2022-10-29T21:28:39.760Z,31.35
2022-10-29T21:31:07.635Z,29.48
2022-10-29T21:33:35.841Z,33.33
2022-10-29T21:36:05.381Z,23.15
2022-10-29T21:38:33.388Z,24.13
2022-10-29T21:41:01.965Z,26.85
2022-10-29T21:43:29.614Z,28.15
2022-10-29T21:45:58.328Z,24.02
2022-10-29T21:48:26.809Z,24.05
2022-10-29T21:51:01.105Z,21.58
2022-10-29T21:53:30.628Z,23.70
2022-10-29T21:55:58.759Z,23.75
2022-10-29T21:58:27.055Z,25.13
2022-10-29T22:01:03.713Z,25.40
2022-10-29T22:03:32.129Z,31.13
2022-10-29T22:06:03.899Z,28.20
2022-10-29T22:08:33.039Z,25.73
2022-10-29T22:11:01.198Z,31.10
2022-10-29T22:13:29.137Z,29.73
2022-10-29T22:15:56.897Z,29.90
2022-10-29T22:18:25.269Z,23.27
2022-10-29T22:21:04.069Z,21.63
2022-10-29T22:23:33.179Z,22.08
2022-10-29T22:26:00.699Z,21.45
2022-10-29T22:28:28.284Z,24.58
2022-10-29T22:31:00.311Z,20.90
2022-10-29T22:33:28.118Z,21.95
2022-10-29T22:35:55.707Z,23.40
2022-10-29T22:38:23.257Z,21.55
2022-10-29T22:40:52.107Z,22.10
2022-10-29T22:43:19.610Z,22.25
2022-10-29T22:45:47.131Z,28.08
2022-10-29T22:48:14.662Z,27.30
2022-10-29T22:50:42.239Z,28.00
2022-10-29T22:53:09.742Z,30.48
2022-10-29T22:55:37.249Z,25.00
2022-10-29T22:58:06.102Z,26.10
2022-10-29T23:00:33.701Z,30.67
2022-10-29T23:03:01.371Z,21.42
2022-10-29T23:05:28.878Z,22.73
2022-10-29T23:07:56.636Z,20.70
2022-10-29T23:10:24.357Z,20.92
2022-10-29T23:12:51.894Z,18.10
2022-10-29T23:15:20.979Z,21.10
2022-10-29T23:17:48.507Z,20.00
2022-10-29T23:20:16.047Z,19.98
2022-10-29T23:22:43.606Z,18.83
2022-10-29T23:25:11.147Z,20.02
2022-10-29T23:27:38.662Z,15.80
2022-10-29T23:30:07.134Z,22.85
2022-10-29T23:32:36.045Z,21.67
2022-10-29T23:35:03.664Z,23.15
2022-10-29T23:37:31.202Z,22.35
2022-10-29T23:39:58.736Z,19.30
2022-10-29T23:42:26.262Z,19.50
2022-10-29T23:44:53.795Z,21.30
2022-10-29T23:47:21.307Z,18.77
2022-10-29T23:49:50.208Z,19.33
2022-10-29T23:52:17.724Z,18.67
2022-10-29T23:54:45.240Z,22.52
2022-10-29T23:57:12.772Z,22.05
2022-10-29T23:59:41.388Z,20.88
